createdAt,value
2019-01-16T00:00:00.193Z,22.97
2019-01-16T00:04:19.278Z,21.90
2019-01-16T00:08:41.173Z,21.53
2019-01-16T00:12:52.766Z,22.47
2019-01-16T00:17:14.296Z,19.10
2019-01-16T00:21:49.871Z,21.37
2019-01-16T00:26:11.774Z,21.83
2019-01-16T00:30:32.715Z,21.37
2019-01-16T00:34:58.774Z,22.93
2019-01-16T00:39:21.929Z,22.87
2019-01-16T00:43:46.037Z,22.50
2019-01-16T00:48:09.283Z,23.57
2019-01-16T00:52:27.519Z,23.77
2019-01-16T00:56:56.944Z,24.50
2019-01-16T01:01:18.853Z,23.37
2019-01-16T01:05:33.845Z,25.03
2019-01-16T01:10:15.418Z,24.13
2019-01-16T01:14:41.603Z,23.03
2019-01-16T01:18:59.758Z,22.80
2019-01-16T01:23:23.006Z,23.93
2019-01-16T01:27:38.701Z,23.83
2019-01-16T01:31:53.468Z,22.80
2019-01-16T01:36:13.054Z,23.47
2019-01-16T01:40:42.669Z,21.10
2019-01-16T01:45:05.260Z,21.27
2019-01-16T01:49:30.422Z,20.63
2019-01-16T01:53:53.681Z,21.20
2019-01-16T01:58:16.981Z,20.63
2019-01-16T02:02:40.202Z,20.03
2019-01-16T02:07:03.459Z,19.90
2019-01-16T02:11:22.767Z,21.43
2019-01-16T02:15:49.142Z,21.07
2019-01-16T02:20:15.215Z,21.73
2019-01-16T02:24:37.090Z,21.07
2019-01-16T02:28:53.226Z,21.10
2019-01-16T02:33:28.557Z,21.73
2019-01-16T02:37:46.710Z,21.60
2019-01-16T02:42:12.950Z,21.50
2019-01-16T02:46:36.559Z,22.10
2019-01-16T02:51:01.359Z,19.93
2019-01-16T02:55:17.254Z,20.73
2019-01-16T02:59:40.525Z,20.73
2019-01-16T03:04:09.501Z,20.53
2019-01-16T03:08:38.881Z,21.03
2019-01-16T03:13:05.365Z,21.97
2019-01-16T03:17:27.462Z,22.03
2019-01-16T03:21:53.697Z,22.07
2019-01-16T03:26:08.867Z,22.33
2019-01-16T03:30:39.214Z,22.60
2019-01-16T03:35:05.222Z,20.70
2019-01-16T03:39:21.442Z,21.30
2019-01-16T03:43:43.807Z,21.53
2019-01-16T03:48:16.757Z,20.43
2019-01-16T03:52:38.945Z,21.17
2019-01-16T03:56:54.898Z,21.43
2019-01-16T04:01:17.022Z,21.40
2019-01-16T04:05:39.262Z,21.33
2019-01-16T04:10:14.813Z,23.47
2019-01-16T04:14:40.779Z,22.37
2019-01-16T04:19:04.021Z,22.33
2019-01-16T04:23:20.571Z,22.63
2019-01-16T04:27:56.123Z,21.90
2019-01-16T04:32:28.595Z,20.63
2019-01-16T04:36:51.835Z,21.97
2019-01-16T04:41:21.334Z,21.20
2019-01-16T04:45:43.609Z,21.27
2019-01-16T04:50:06.342Z,20.57
2019-01-16T04:54:32.639Z,21.60
2019-01-16T04:58:58.266Z,22.20
2019-01-16T05:03:13.783Z,20.97
2019-01-16T05:07:25.394Z,21.60
2019-01-16T05:11:50.934Z,19.80
2019-01-16T05:16:11.939Z,21.03
2019-01-16T05:20:34.115Z,20.73
2019-01-16T05:25:01.130Z,20.13
2019-01-16T05:29:33.671Z,20.17
2019-01-16T05:34:02.986Z,20.43
2019-01-16T05:38:35.313Z,20.23
2019-01-16T05:43:13.719Z,19.30
2019-01-16T05:47:34.346Z,19.90
2019-01-16T05:51:57.962Z,19.27
2019-01-16T05:56:18.533Z,18.77
2019-01-16T06:00:37.170Z,18.67
2019-01-16T06:04:51.169Z,19.37
2019-01-16T06:09:17.371Z,18.27
2019-01-16T06:13:45.374Z,17.57
2019-01-16T06:18:20.754Z,18.07
2019-01-16T06:22:46.802Z,16.23
2019-01-16T06:27:09.008Z,16.93
2019-01-16T06:31:22.119Z,18.27
2019-01-16T06:35:44.275Z,18.63
2019-01-16T06:40:02.001Z,17.20
2019-01-16T06:44:15.597Z,16.93
2019-01-16T06:48:37.982Z,16.17
2019-01-16T06:53:04.249Z,17.47
2019-01-16T06:57:45.970Z,17.13
2019-01-16T07:02:08.029Z,17.50
2019-01-16T07:06:33.309Z,18.03
2019-01-16T07:10:55.475Z,17.90
2019-01-16T07:15:17.478Z,17.93
2019-01-16T07:19:53.685Z,16.70
2019-01-16T07:24:19.814Z,17.47
2019-01-16T07:28:45.918Z,17.47
2019-01-16T07:33:08.921Z,16.80
2019-01-16T07:37:27.997Z,16.33
2019-01-16T07:41:53.966Z,15.43
2019-01-16T07:46:12.080Z,17.07
2019-01-16T07:50:42.522Z,16.30
2019-01-16T07:55:05.761Z,17.17
2019-01-16T07:59:21.886Z,16.47
2019-01-16T08:03:44.055Z,17.73
2019-01-16T08:08:04.346Z,15.67
2019-01-16T08:12:30.547Z,17.73
2019-01-16T08:17:02.846Z,17.63
2019-01-16T08:21:25.424Z,15.83
2019-01-16T08:25:48.702Z,18.27
2019-01-16T08:30:10.853Z,18.00
2019-01-16T08:34:34.099Z,16.10
2019-01-16T08:38:55.800Z,18.00
2019-01-16T08:43:20.518Z,18.87
2019-01-16T08:47:43.905Z,18.03
2019-01-16T08:52:22.590Z,18.80
2019-01-16T08:56:53.470Z,17.57
2019-01-16T09:01:10.942Z,18.77
2019-01-16T09:05:33.382Z,19.50
2019-01-16T09:09:55.197Z,18.13
2019-01-16T09:14:24.591Z,17.43
2019-01-16T09:18:50.699Z,17.63
2019-01-16T09:23:26.248Z,17.40
2019-01-16T09:27:49.530Z,16.70
2019-01-16T09:32:11.367Z,15.83
2019-01-16T09:36:33.625Z,15.87
2019-01-16T09:40:47.814Z,13.77
2019-01-16T09:45:23.475Z,14.60
2019-01-16T09:50:05.152Z,14.53
2019-01-16T09:54:20.975Z,13.07
2019-01-16T09:59:01.993Z,12.10
2019-01-16T10:03:24.153Z,10.93
2019-01-16T10:07:41.130Z,10.33
2019-01-16T10:12:03.314Z,9.90
2019-01-16T10:16:25.830Z,10.07
2019-01-16T10:20:47.707Z,8.47
2019-01-16T10:25:26.326Z,8.73
2019-01-16T10:29:52.302Z,8.73
2019-01-16T10:34:33.758Z,7.77
2019-01-16T10:38:59.735Z,7.70
2019-01-16T10:43:21.061Z,7.53
2019-01-16T10:47:53.225Z,9.13
2019-01-16T10:52:11.094Z,8.73
2019-01-16T10:56:31.210Z,8.43
2019-01-16T11:00:48.726Z,7.57
2019-01-16T11:05:06.098Z,6.97
2019-01-16T11:09:48.511Z,8.17
2019-01-16T11:14:11.753Z,7.33
2019-01-16T11:18:33.706Z,6.20
2019-01-16T11:22:55.894Z,6.77
2019-01-16T11:27:25.252Z,6.37
2019-01-16T11:31:41.189Z,6.40
2019-01-16T11:36:22.541Z,7.27
2019-01-16T11:40:54.675Z,7.83
2019-01-16T11:45:13.865Z,7.50
2019-01-16T11:49:46.454Z,7.10
2019-01-16T11:54:18.821Z,7.37
2019-01-16T11:58:54.117Z,6.53
2019-01-16T12:03:18.010Z,6.27
2019-01-16T12:07:33.347Z,6.40
2019-01-16T12:11:47.642Z,6.37
2019-01-16T12:16:09.546Z,5.83
2019-01-16T12:20:26.966Z,6.70
2019-01-16T12:24:44.508Z,5.67
2019-01-16T12:29:25.814Z,6.50
2019-01-16T12:33:43.741Z,6.23
2019-01-16T12:38:05.614Z,6.70
2019-01-16T12:42:17.252Z,6.63
2019-01-16T12:46:43.717Z,6.73
2019-01-16T12:50:55.621Z,8.27
2019-01-16T12:55:25.058Z,8.27
2019-01-16T12:59:37.364Z,8.20
2019-01-16T13:04:06.686Z,8.87
2019-01-16T13:08:21.242Z,9.57
2019-01-16T13:12:43.526Z,10.07
2019-01-16T13:17:05.657Z,10.90
2019-01-16T13:21:21.850Z,11.80
2019-01-16T13:25:40.502Z,11.47
2019-01-16T13:30:03.799Z,12.30
2019-01-16T13:34:42.239Z,11.87
2019-01-16T13:38:56.153Z,11.20
2019-01-16T13:43:13.046Z,12.67
2019-01-16T13:47:45.337Z,12.03
2019-01-16T13:51:59.418Z,12.47
2019-01-16T13:56:37.882Z,11.60
2019-01-16T14:01:04.174Z,11.10
2019-01-16T14:05:33.567Z,9.87
2019-01-16T14:09:49.138Z,9.70
2019-01-16T14:14:15.409Z,9.43
2019-01-16T14:18:36.283Z,10.23
2019-01-16T14:23:08.929Z,11.23
2019-01-16T14:27:31.030Z,10.03
2019-01-16T14:31:54.290Z,10.00
2019-01-16T14:36:20.462Z,10.60
2019-01-16T14:40:42.726Z,10.93
2019-01-16T14:45:09.037Z,10.30
2019-01-16T14:49:38.538Z,11.07
2019-01-16T14:54:17.158Z,11.03
2019-01-16T14:58:59.569Z,10.63
2019-01-16T15:03:21.726Z,11.43
2019-01-16T15:07:47.106Z,9.97
2019-01-16T15:12:01.586Z,8.93
2019-01-16T15:16:27.967Z,9.27
2019-01-16T15:20:54.537Z,9.50
2019-01-16T15:25:16.565Z,9.03
2019-01-16T15:29:42.944Z,9.47
2019-01-16T15:34:05.003Z,9.60
2019-01-16T15:38:28.247Z,9.67
2019-01-16T15:43:09.766Z,10.13
2019-01-16T15:47:40.983Z,9.43
2019-01-16T15:51:57.909Z,9.83
2019-01-16T15:56:30.134Z,9.47
2019-01-16T16:01:02.713Z,9.03
2019-01-16T16:05:21.157Z,9.30
2019-01-16T16:09:43.722Z,8.93
2019-01-16T16:14:00.304Z,9.10
2019-01-16T16:18:22.753Z,10.30
2019-01-16T16:22:52.243Z,10.60
2019-01-16T16:27:15.503Z,10.23
2019-01-16T16:31:42.497Z,10.03
2019-01-16T16:36:08.677Z,10.47
2019-01-16T16:40:31.526Z,10.43
2019-01-16T16:44:53.294Z,10.93
2019-01-16T16:49:15.398Z,13.67
2019-01-16T16:53:37.606Z,12.33
2019-01-16T16:57:59.678Z,12.37
2019-01-16T17:02:22.007Z,12.40
2019-01-16T17:06:54.337Z,12.10
2019-01-16T17:11:16.600Z,12.33
2019-01-16T17:15:36.981Z,11.80
2019-01-16T17:19:57.457Z,12.37
2019-01-16T17:24:19.593Z,12.10
2019-01-16T17:28:41.538Z,12.47
2019-01-16T17:33:04.762Z,12.23
2019-01-16T17:37:38.378Z,11.17
2019-01-16T17:42:01.230Z,12.20
2019-01-16T17:46:39.966Z,11.27
2019-01-16T17:51:03.171Z,12.80
2019-01-16T17:55:23.794Z,11.73
2019-01-16T17:59:47.169Z,12.30
2019-01-16T18:04:13.238Z,12.57
2019-01-16T18:08:35.334Z,12.17
2019-01-16T18:13:01.869Z,11.20
2019-01-16T18:17:28.057Z,12.70
2019-01-16T18:22:00.526Z,12.07
2019-01-16T18:26:29.785Z,13.43
2019-01-16T18:31:05.370Z,11.70
2019-01-16T18:35:34.696Z,11.33
2019-01-16T18:40:08.983Z,11.30
2019-01-16T18:44:41.046Z,11.17
2019-01-16T18:49:09.448Z,10.00
2019-01-16T18:53:28.539Z,9.43
2019-01-16T18:57:41.502Z,8.47
2019-01-16T19:02:20.094Z,9.70
2019-01-16T19:06:42.088Z,8.50
2019-01-16T19:11:02.738Z,8.40
2019-01-16T19:15:18.891Z,9.20
2019-01-16T19:19:51.456Z,8.83
2019-01-16T19:24:21.099Z,7.63
2019-01-16T19:28:36.086Z,7.53
2019-01-16T19:32:51.286Z,7.43
2019-01-16T19:37:13.413Z,8.07
2019-01-16T19:41:35.685Z,6.70
2019-01-16T19:45:57.803Z,7.67
2019-01-16T19:50:20.026Z,7.00
2019-01-16T19:55:01.761Z,6.20
2019-01-16T19:59:23.610Z,5.77
2019-01-16T20:04:05.374Z,6.77
2019-01-16T20:08:31.377Z,6.87
2019-01-16T20:12:53.158Z,6.07
2019-01-16T20:17:34.822Z,6.20
2019-01-16T20:21:56.750Z,6.37
2019-01-16T20:26:22.743Z,6.53
2019-01-16T20:31:01.340Z,7.13
2019-01-16T20:35:24.804Z,6.67
2019-01-16T20:39:51.194Z,6.90
2019-01-16T20:44:03.922Z,7.77
2019-01-16T20:48:27.165Z,6.83
2019-01-16T20:52:53.946Z,8.43
2019-01-16T20:57:08.128Z,7.60
2019-01-16T21:01:29.927Z,7.90
2019-01-16T21:05:46.363Z,7.60
2019-01-16T21:10:06.255Z,9.00
2019-01-16T21:14:44.528Z,8.13
2019-01-16T21:19:16.850Z,8.07
2019-01-16T21:23:40.101Z,8.97
2019-01-16T21:28:11.665Z,8.20
2019-01-16T21:32:40.657Z,8.70
2019-01-16T21:37:12.875Z,9.17
2019-01-16T21:41:30.681Z,9.70
2019-01-16T21:46:02.966Z,9.73
2019-01-16T21:50:25.746Z,9.60
2019-01-16T21:54:49.082Z,8.97
2019-01-16T21:59:11.127Z,9.23
2019-01-16T22:03:33.041Z,9.67
2019-01-16T22:07:55.956Z,9.17
2019-01-16T22:12:18.134Z,9.00
2019-01-16T22:16:44.558Z,9.73
2019-01-16T22:20:59.512Z,10.13
2019-01-16T22:25:35.241Z,9.60
2019-01-16T22:29:59.846Z,9.60
2019-01-16T22:34:19.286Z,8.93
2019-01-16T22:38:36.030Z,9.27
2019-01-16T22:42:58.394Z,8.73
2019-01-16T22:47:10.678Z,8.60
2019-01-16T22:51:32.585Z,8.87
2019-01-16T22:55:50.142Z,8.30
2019-01-16T23:00:28.473Z,8.97
2019-01-16T23:04:50.593Z,8.80
2019-01-16T23:09:17.538Z,8.60
2019-01-16T23:13:39.324Z,9.00
2019-01-16T23:18:18.021Z,9.60
2019-01-16T23:22:56.538Z,10.13
2019-01-16T23:27:18.590Z,9.53
2019-01-16T23:31:51.186Z,11.57
2019-01-16T23:36:03.634Z,10.37
2019-01-16T23:40:38.965Z,11.73
2019-01-16T23:45:05.026Z,11.63
2019-01-16T23:49:18.421Z,12.70
2019-01-16T23:53:59.758Z,12.70
2019-01-16T23:58:23.313Z,13.83
